sensor_id;sensor_type;location;lat;lon;timestamp;pressure;altitude;pressure_sealevel;temperature;humidity
55486;BME280;49383;-25.924;28.194;2023-06-04T00:01:10;85024.46;;;19.61;33.67
55486;BME280;49383;-25.924;28.194;2023-06-04T00:03:35;85030.20;;;19.59;33.64
55486;BME280;49383;-25.924;28.194;2023-06-04T00:06:00;85030.04;;;19.42;33.84
55486;BME280;49383;-25.924;28.194;2023-06-04T00:08:26;85030.79;;;19.42;33.78
55486;BME280;49383;-25.924;28.194;2023-06-04T00:10:51;85030.97;;;19.55;33.64
55486;BME280;49383;-25.924;28.194;2023-06-04T00:13:17;85028.07;;;19.57;32.79
55486;BME280;49383;-25.924;28.194;2023-06-04T00:15:42;85023.66;;;19.61;33.05
55486;BME280;49383;-25.924;28.194;2023-06-04T00:18:08;85027.31;;;19.55;33.54
55486;BME280;49383;-25.924;28.194;2023-06-04T00:20:34;85030.15;;;19.59;33.76
55486;BME280;49383;-25.924;28.194;2023-06-04T00:22:59;85026.83;;;19.41;33.70
55486;BME280;49383;-25.924;28.194;2023-06-04T00:25:24;85020.28;;;19.61;33.44
55486;BME280;49383;-25.924;28.194;2023-06-04T00:27:51;85018.02;;;19.54;33.47
55486;BME280;49383;-25.924;28.194;2023-06-04T00:30:16;85017.04;;;19.51;33.51
55486;BME280;49383;-25.924;28.194;2023-06-04T00:32:41;85018.58;;;19.75;32.42
55486;BME280;49383;-25.924;28.194;2023-06-04T00:35:07;85016.67;;;19.55;33.51
55486;BME280;49383;-25.924;28.194;2023-06-04T00:37:32;85018.89;;;19.50;33.76
55486;BME280;49383;-25.924;28.194;2023-06-04T00:39:58;85017.35;;;19.31;33.87
55486;BME280;49383;-25.924;28.194;2023-06-04T00:42:23;85015.30;;;19.34;33.85
55486;BME280;49383;-25.924;28.194;2023-06-04T00:44:49;85015.96;;;19.05;33.88
55486;BME280;49383;-25.924;28.194;2023-06-04T00:47:15;85014.07;;;19.59;33.66
55486;BME280;49383;-25.924;28.194;2023-06-04T00:49:40;85015.24;;;19.33;32.48
55486;BME280;49383;-25.924;28.194;2023-06-04T00:52:06;85020.22;;;19.49;33.70
55486;BME280;49383;-25.924;28.194;2023-06-04T00:54:30;85020.93;;;19.41;33.72
55486;BME280;49383;-25.924;28.194;2023-06-04T00:56:56;85023.45;;;19.43;33.72
55486;BME280;49383;-25.924;28.194;2023-06-04T00:59:22;85023.61;;;19.63;33.52
55486;BME280;49383;-25.924;28.194;2023-06-04T01:01:51;85022.27;;;19.80;33.53
55486;BME280;49383;-25.924;28.194;2023-06-04T01:04:18;85023.94;;;19.35;33.51
55486;BME280;49383;-25.924;28.194;2023-06-04T01:06:40;85020.28;;;19.46;32.87
55486;BME280;49383;-25.924;28.194;2023-06-04T01:09:04;85018.14;;;19.74;32.65
55486;BME280;49383;-25.924;28.194;2023-06-04T01:11:33;85019.12;;;19.46;33.43
55486;BME280;49383;-25.924;28.194;2023-06-04T01:13:53;85019.55;;;19.78;33.45
55486;BME280;49383;-25.924;28.194;2023-06-04T01:16:19;85016.10;;;19.17;33.59
55486;BME280;49383;-25.924;28.194;2023-06-04T01:18:44;85013.94;;;19.16;33.63
55486;BME280;49383;-25.924;28.194;2023-06-04T01:21:11;85009.21;;;19.15;33.61
55486;BME280;49383;-25.924;28.194;2023-06-04T01:23:44;85009.46;;;19.64;33.54
55486;BME280;49383;-25.924;28.194;2023-06-04T01:26:01;85018.93;;;19.72;33.50
55486;BME280;49383;-25.924;28.194;2023-06-04T01:28:26;85018.54;;;19.64;32.45
55486;BME280;49383;-25.924;28.194;2023-06-04T01:30:52;85013.83;;;19.55;33.12
55486;BME280;49383;-25.924;28.194;2023-06-04T01:33:19;85004.58;;;19.72;33.18
55486;BME280;49383;-25.924;28.194;2023-06-04T01:35:43;85005.78;;;19.63;33.25
55486;BME280;49383;-25.924;28.194;2023-06-04T01:38:08;85003.12;;;19.45;33.22
55486;BME280;49383;-25.924;28.194;2023-06-04T01:40:33;85003.28;;;19.51;33.40
55486;BME280;49383;-25.924;28.194;2023-06-04T01:42:59;85001.24;;;19.78;33.33
55486;BME280;49383;-25.924;28.194;2023-06-04T01:45:25;85000.06;;;19.30;33.57
55486;BME280;49383;-25.924;28.194;2023-06-04T01:47:50;85002.11;;;19.74;32.36
55486;BME280;49383;-25.924;28.194;2023-06-04T01:50:15;85006.43;;;19.58;33.13
55486;BME280;49383;-25.924;28.194;2023-06-04T01:52:41;85003.02;;;19.74;33.38
55486;BME280;49383;-25.924;28.194;2023-06-04T01:55:09;84999.61;;;19.45;33.46
55486;BME280;49383;-25.924;28.194;2023-06-04T01:57:32;85004.70;;;19.21;33.73
55486;BME280;49383;-25.924;28.194;2023-06-04T01:59:58;85006.91;;;19.27;33.95
55486;BME280;49383;-25.924;28.194;2023-06-04T02:02:23;85003.83;;;19.53;33.61
55486;BME280;49383;-25.924;28.194;2023-06-04T02:04:49;85007.35;;;19.60;32.61
55486;BME280;49383;-25.924;28.194;2023-06-04T02:07:14;85004.50;;;19.54;32.77
55486;BME280;49383;-25.924;28.194;2023-06-04T02:09:40;85012.97;;;19.85;33.29
55486;BME280;49383;-25.924;28.194;2023-06-04T02:12:06;85015.06;;;19.51;33.13
55486;BME280;49383;-25.924;28.194;2023-06-04T02:14:30;85013.19;;;19.49;33.34
55486;BME280;49383;-25.924;28.194;2023-06-04T02:16:56;85010.27;;;19.51;33.54
55486;BME280;49383;-25.924;28.194;2023-06-04T02:19:21;85011.17;;;19.49;33.61
55486;BME280;49383;-25.924;28.194;2023-06-04T02:21:47;85007.56;;;19.23;33.60
55486;BME280;49383;-25.924;28.194;2023-06-04T02:24:12;85003.89;;;19.55;33.50
55486;BME280;49383;-25.924;28.194;2023-06-04T02:26:38;85000.79;;;19.57;32.59
55486;BME280;49383;-25.924;28.194;2023-06-04T02:29:03;85001.28;;;19.69;32.43
55486;BME280;49383;-25.924;28.194;2023-06-04T02:31:28;84996.90;;;19.41;33.17
55486;BME280;49383;-25.924;28.194;2023-06-04T02:33:55;84990.88;;;19.24;33.27
55486;BME280;49383;-25.924;28.194;2023-06-04T02:36:19;84985.97;;;19.27;33.53
55486;BME280;49383;-25.924;28.194;2023-06-04T02:38:44;84983.69;;;19.11;33.74
55486;BME280;49383;-25.924;28.194;2023-06-04T02:41:10;84983.91;;;19.08;33.74
55486;BME280;49383;-25.924;28.194;2023-06-04T02:43:36;84990.56;;;18.83;33.75
55486;BME280;49383;-25.924;28.194;2023-06-04T02:46:01;84997.91;;;18.78;33.85
55486;BME280;49383;-25.924;28.194;2023-06-04T02:48:26;84999.67;;;19.48;33.09
55486;BME280;49383;-25.924;28.194;2023-06-04T02:50:52;84994.48;;;19.26;32.50
55486;BME280;49383;-25.924;28.194;2023-06-04T02:53:17;84989.06;;;19.57;33.21
55486;BME280;49383;-25.924;28.194;2023-06-04T02:55:42;84982.42;;;19.27;33.22
55486;BME280;49383;-25.924;28.194;2023-06-04T02:58:08;84981.84;;;19.72;33.23
55486;BME280;49383;-25.924;28.194;2023-06-04T03:00:33;84984.28;;;19.43;33.10
55486;BME280;49383;-25.924;28.194;2023-06-04T03:02:58;84986.45;;;19.55;32.93
55486;BME280;49383;-25.924;28.194;2023-06-04T03:05:23;84986.80;;;19.25;33.26
55486;BME280;49383;-25.924;28.194;2023-06-04T03:07:49;84985.65;;;19.10;33.40
55486;BME280;49383;-25.924;28.194;2023-06-04T03:10:15;84997.57;;;19.45;33.37
55486;BME280;49383;-25.924;28.194;2023-06-04T03:12:40;85004.68;;;19.42;32.28
55486;BME280;49383;-25.924;28.194;2023-06-04T03:15:06;85005.07;;;19.26;33.14
55486;BME280;49383;-25.924;28.194;2023-06-04T03:17:31;85000.87;;;19.41;33.27
55486;BME280;49383;-25.924;28.194;2023-06-04T03:19:56;85006.55;;;19.51;33.40
55486;BME280;49383;-25.924;28.194;2023-06-04T03:22:22;85007.63;;;19.41;33.49
55486;BME280;49383;-25.924;28.194;2023-06-04T03:24:47;85002.15;;;18.91;33.53
55486;BME280;49383;-25.924;28.194;2023-06-04T03:27:13;85005.51;;;19.28;33.65
55486;BME280;49383;-25.924;28.194;2023-06-04T03:29:38;85004.74;;;19.06;33.59
55486;BME280;49383;-25.924;28.194;2023-06-04T03:32:05;85000.77;;;19.18;33.79
55486;BME280;49383;-25.924;28.194;2023-06-04T03:34:29;84999.34;;;19.32;32.96
55486;BME280;49383;-25.924;28.194;2023-06-04T03:36:55;85001.34;;;19.33;32.71
55486;BME280;49383;-25.924;28.194;2023-06-04T03:39:21;85006.70;;;19.46;33.46
55486;BME280;49383;-25.924;28.194;2023-06-04T03:41:46;85012.00;;;19.09;33.63
55486;BME280;49383;-25.924;28.194;2023-06-04T03:44:13;85010.92;;;19.02;33.72
55486;BME280;49383;-25.924;28.194;2023-06-04T03:46:36;85010.55;;;19.32;33.62
55486;BME280;49383;-25.924;28.194;2023-06-04T03:49:02;85012.82;;;19.28;33.71
55486;BME280;49383;-25.924;28.194;2023-06-04T03:51:27;85011.46;;;18.87;33.62
55486;BME280;49383;-25.924;28.194;2023-06-04T03:53:53;85012.29;;;19.02;33.72
55486;BME280;49383;-25.924;28.194;2023-06-04T03:56:19;85016.05;;;19.17;33.78
55486;BME280;49383;-25.924;28.194;2023-06-04T03:58:44;85010.79;;;19.45;32.95
55486;BME280;49383;-25.924;28.194;2023-06-04T04:01:09;85009.61;;;19.52;33.13
55486;BME280;49383;-25.924;28.194;2023-06-04T04:03:35;85008.66;;;19.55;33.36
55486;BME280;49383;-25.924;28.194;2023-06-04T04:06:00;85013.14;;;19.65;33.27
55486;BME280;49383;-25.924;28.194;2023-06-04T04:08:25;85009.34;;;18.99;33.49
55486;BME280;49383;-25.924;28.194;2023-06-04T04:10:51;85012.51;;;19.23;33.78
55486;BME280;49383;-25.924;28.194;2023-06-04T04:13:16;85011.72;;;19.13;33.86
55486;BME280;49383;-25.924;28.194;2023-06-04T04:15:41;85007.95;;;18.99;34.00
55486;BME280;49383;-25.924;28.194;2023-06-04T04:18:07;85006.96;;;19.02;33.94
55486;BME280;49383;-25.924;28.194;2023-06-04T04:20:32;85011.21;;;19.28;33.71
55486;BME280;49383;-25.924;28.194;2023-06-04T04:22:57;85014.57;;;19.11;33.83
55486;BME280;49383;-25.924;28.194;2023-06-04T04:25:23;85019.12;;;19.19;32.45
55486;BME280;49383;-25.924;28.194;2023-06-04T04:27:49;85025.48;;;19.52;33.32
55486;BME280;49383;-25.924;28.194;2023-06-04T04:30:14;85028.22;;;19.26;33.47
55486;BME280;49383;-25.924;28.194;2023-06-04T04:32:41;85030.98;;;19.51;33.48
55486;BME280;49383;-25.924;28.194;2023-06-04T04:35:06;85028.99;;;19.28;33.15
55486;BME280;49383;-25.924;28.194;2023-06-04T04:37:32;85027.19;;;19.30;33.07
55486;BME280;49383;-25.924;28.194;2023-06-04T04:39:57;85027.50;;;19.57;33.27
55486;BME280;49383;-25.924;28.194;2023-06-04T04:42:22;85031.36;;;19.48;33.36
55486;BME280;49383;-25.924;28.194;2023-06-04T04:44:48;85034.28;;;19.38;33.11
55486;BME280;49383;-25.924;28.194;2023-06-04T04:47:14;85034.81;;;19.65;32.20
55486;BME280;49383;-25.924;28.194;2023-06-04T04:49:39;85042.92;;;19.48;32.98
55486;BME280;49383;-25.924;28.194;2023-06-04T04:52:05;85045.83;;;19.54;33.08
55486;BME280;49383;-25.924;28.194;2023-06-04T04:54:30;85044.59;;;19.14;33.04
55486;BME280;49383;-25.924;28.194;2023-06-04T04:56:56;85046.45;;;19.26;33.18
55486;BME280;49383;-25.924;28.194;2023-06-04T04:59:22;85047.10;;;19.55;33.08
55486;BME280;49383;-25.924;28.194;2023-06-04T05:01:48;85051.52;;;19.07;33.35
55486;BME280;49383;-25.924;28.194;2023-06-04T05:04:13;85052.63;;;19.34;33.12
55486;BME280;49383;-25.924;28.194;2023-06-04T05:06:38;85061.39;;;19.62;32.16
55486;BME280;49383;-25.924;28.194;2023-06-04T05:09:04;85065.90;;;19.53;32.95
55486;BME280;49383;-25.924;28.194;2023-06-04T05:11:29;85060.61;;;19.29;33.21
55486;BME280;49383;-25.924;28.194;2023-06-04T05:13:54;85065.15;;;19.03;33.55
55486;BME280;49383;-25.924;28.194;2023-06-04T05:16:19;85074.81;;;19.08;33.51
55486;BME280;49383;-25.924;28.194;2023-06-04T05:18:45;85081.89;;;19.34;32.46
55486;BME280;49383;-25.924;28.194;2023-06-04T05:21:10;85085.96;;;19.09;32.23
55486;BME280;49383;-25.924;28.194;2023-06-04T05:23:35;85092.54;;;19.27;33.13
55486;BME280;49383;-25.924;28.194;2023-06-04T05:26:01;85084.70;;;19.24;33.16
55486;BME280;49383;-25.924;28.194;2023-06-04T05:28:26;85082.47;;;19.14;33.32
55486;BME280;49383;-25.924;28.194;2023-06-04T05:30:52;85079.52;;;19.49;33.02
55486;BME280;49383;-25.924;28.194;2023-06-04T05:33:17;85083.49;;;19.31;31.74
55486;BME280;49383;-25.924;28.194;2023-06-04T05:35:42;85088.00;;;19.30;33.05
55486;BME280;49383;-25.924;28.194;2023-06-04T05:38:08;85089.28;;;19.55;33.09
55486;BME280;49383;-25.924;28.194;2023-06-04T05:40:33;85085.35;;;19.75;32.78
55486;BME280;49383;-25.924;28.194;2023-06-04T05:42:58;85083.61;;;19.67;31.75
55486;BME280;49383;-25.924;28.194;2023-06-04T05:45:23;85081.39;;;19.47;31.93
55486;BME280;49383;-25.924;28.194;2023-06-04T05:47:48;85090.15;;;19.55;33.12
55486;BME280;49383;-25.924;28.194;2023-06-04T05:50:14;85093.84;;;19.97;32.86
55486;BME280;49383;-25.924;28.194;2023-06-04T05:52:39;85097.81;;;19.54;32.63
55486;BME280;49383;-25.924;28.194;2023-06-04T05:55:06;85100.75;;;19.80;31.28
55486;BME280;49383;-25.924;28.194;2023-06-04T05:57:31;85104.90;;;19.54;32.08
55486;BME280;49383;-25.924;28.194;2023-06-04T05:59:56;85106.63;;;20.00;33.13
55486;BME280;49383;-25.924;28.194;2023-06-04T06:02:21;85109.39;;;19.76;32.82
55486;BME280;49383;-25.924;28.194;2023-06-04T06:04:46;85109.76;;;19.70;31.80
55486;BME280;49383;-25.924;28.194;2023-06-04T06:07:12;85115.63;;;19.97;31.33
55486;BME280;49383;-25.924;28.194;2023-06-04T06:09:37;85117.62;;;19.94;31.79
55486;BME280;49383;-25.924;28.194;2023-06-04T06:12:03;85111.68;;;19.93;31.60
55486;BME280;49383;-25.924;28.194;2023-06-04T06:14:28;85106.58;;;19.95;31.60
55486;BME280;49383;-25.924;28.194;2023-06-04T06:16:54;85109.87;;;19.97;31.97
55486;BME280;49383;-25.924;28.194;2023-06-04T06:19:19;85113.78;;;19.51;31.67
55486;BME280;49383;-25.924;28.194;2023-06-04T06:21:45;85115.75;;;19.74;31.74
55486;BME280;49383;-25.924;28.194;2023-06-04T06:24:10;85114.21;;;19.77;31.65
55486;BME280;49383;-25.924;28.194;2023-06-04T06:26:36;85120.08;;;19.99;31.82
55486;BME280;49383;-25.924;28.194;2023-06-04T06:29:01;85116.13;;;19.76;31.63
55486;BME280;49383;-25.924;28.194;2023-06-04T06:31:27;85108.08;;;19.73;31.71
55486;BME280;49383;-25.924;28.194;2023-06-04T06:33:51;85110.25;;;20.06;31.73
55486;BME280;49383;-25.924;28.194;2023-06-04T06:36:17;85114.71;;;19.85;31.69
55486;BME280;49383;-25.924;28.194;2023-06-04T06:38:42;85116.01;;;19.85;31.78
55486;BME280;49383;-25.924;28.194;2023-06-04T06:41:08;85117.17;;;19.84;31.70
55486;BME280;49383;-25.924;28.194;2023-06-04T06:43:33;85118.46;;;19.87;31.71
55486;BME280;49383;-25.924;28.194;2023-06-04T06:45:58;85114.75;;;20.17;31.80
55486;BME280;49383;-25.924;28.194;2023-06-04T06:48:23;85119.26;;;19.90;31.79
55486;BME280;49383;-25.924;28.194;2023-06-04T06:50:49;85121.56;;;19.93;31.86
55486;BME280;49383;-25.924;28.194;2023-06-04T06:53:15;85130.76;;;20.26;31.67
55486;BME280;49383;-25.924;28.194;2023-06-04T06:55:40;85132.00;;;19.99;31.78
55486;BME280;49383;-25.924;28.194;2023-06-04T06:58:05;85130.42;;;20.33;31.50
55486;BME280;49383;-25.924;28.194;2023-06-04T07:00:31;85131.21;;;20.01;31.77
55486;BME280;49383;-25.924;28.194;2023-06-04T07:02:56;85136.14;;;20.04;31.34
55486;BME280;49383;-25.924;28.194;2023-06-04T07:05:21;85136.99;;;20.08;31.35
55486;BME280;49383;-25.924;28.194;2023-06-04T07:07:47;85134.89;;;20.08;31.16
55486;BME280;49383;-25.924;28.194;2023-06-04T07:10:13;85137.98;;;20.12;31.29
55486;BME280;49383;-25.924;28.194;2023-06-04T07:12:38;85145.03;;;20.10;31.55
55486;BME280;49383;-25.924;28.194;2023-06-04T07:15:05;85147.30;;;19.92;31.40
55486;BME280;49383;-25.924;28.194;2023-06-04T07:17:29;85149.87;;;19.95;31.55
55486;BME280;49383;-25.924;28.194;2023-06-04T07:19:55;85149.08;;;20.18;31.52
55486;BME280;49383;-25.924;28.194;2023-06-04T07:22:20;85146.93;;;20.24;31.05
55486;BME280;49383;-25.924;28.194;2023-06-04T07:24:46;85144.44;;;20.21;31.45
55486;BME280;49383;-25.924;28.194;2023-06-04T07:27:12;85143.62;;;20.25;30.62
55486;BME280;49383;-25.924;28.194;2023-06-04T07:29:37;85143.45;;;20.25;30.02
55486;BME280;49383;-25.924;28.194;2023-06-04T07:32:03;85143.03;;;20.26;29.55
55486;BME280;49383;-25.924;28.194;2023-06-04T07:34:28;85139.99;;;20.25;29.06
55486;BME280;49383;-25.924;28.194;2023-06-04T07:36:54;85132.19;;;20.21;28.89
55486;BME280;49383;-25.924;28.194;2023-06-04T07:39:20;85129.23;;;20.22;28.62
55486;BME280;49383;-25.924;28.194;2023-06-04T07:41:45;85129.36;;;20.19;28.72
55486;BME280;49383;-25.924;28.194;2023-06-04T07:44:11;85135.32;;;20.49;28.30
55486;BME280;49383;-25.924;28.194;2023-06-04T07:46:36;85139.72;;;20.20;27.95
55486;BME280;49383;-25.924;28.194;2023-06-04T07:49:02;85135.96;;;20.08;28.73
55486;BME280;49383;-25.924;28.194;2023-06-04T07:51:27;85132.45;;;20.41;28.40
55486;BME280;49383;-25.924;28.194;2023-06-04T07:53:53;85132.45;;;20.19;28.06
55486;BME280;49383;-25.924;28.194;2023-06-04T07:56:18;85132.03;;;20.23;28.28
55486;BME280;49383;-25.924;28.194;2023-06-04T07:58:44;85131.74;;;20.01;27.99
55486;BME280;49383;-25.924;28.194;2023-06-04T08:03:35;85131.96;;;20.05;28.91
55486;BME280;49383;-25.924;28.194;2023-06-04T08:06:00;85136.67;;;20.29;29.09
55486;BME280;49383;-25.924;28.194;2023-06-04T08:08:26;85139.69;;;20.32;28.57
55486;BME280;49383;-25.924;28.194;2023-06-04T08:10:51;85142.27;;;20.28;29.08
55486;BME280;49383;-25.924;28.194;2023-06-04T08:13:17;85139.96;;;20.58;28.30
55486;BME280;49383;-25.924;28.194;2023-06-04T08:15:42;85139.01;;;20.29;29.35
55486;BME280;49383;-25.924;28.194;2023-06-04T08:18:08;85140.97;;;20.09;29.32
55486;BME280;49383;-25.924;28.194;2023-06-04T08:20:33;85139.38;;;20.36;30.09
55486;BME280;49383;-25.924;28.194;2023-06-04T08:22:58;85138.60;;;20.20;30.15
55486;BME280;49383;-25.924;28.194;2023-06-04T08:25:24;85138.98;;;20.23;30.44
55486;BME280;49383;-25.924;28.194;2023-06-04T08:27:49;85138.37;;;20.28;30.51
55486;BME280;49383;-25.924;28.194;2023-06-04T08:30:15;85134.14;;;20.51;30.91
55486;BME280;49383;-25.924;28.194;2023-06-04T08:32:40;85133.18;;;20.56;30.87
55486;BME280;49383;-25.924;28.194;2023-06-04T08:35:06;85131.82;;;20.57;30.93
55486;BME280;49383;-25.924;28.194;2023-06-04T08:37:31;85132.72;;;20.38;30.81
55486;BME280;49383;-25.924;28.194;2023-06-04T08:39:56;85127.06;;;20.39;31.04
55486;BME280;49383;-25.924;28.194;2023-06-04T08:42:27;85117.36;;;20.67;30.80
55486;BME280;49383;-25.924;28.194;2023-06-04T08:44:51;85114.46;;;20.49;30.65
55486;BME280;49383;-25.924;28.194;2023-06-04T08:47:14;85110.06;;;20.47;30.68
55486;BME280;49383;-25.924;28.194;2023-06-04T08:49:41;85105.91;;;20.46;30.63
55486;BME280;49383;-25.924;28.194;2023-06-04T08:52:04;85100.71;;;20.27;30.95
55486;BME280;49383;-25.924;28.194;2023-06-04T08:54:29;85106.12;;;20.51;31.05
55486;BME280;49383;-25.924;28.194;2023-06-04T08:56:56;85111.45;;;20.54;31.19
55486;BME280;49383;-25.924;28.194;2023-06-04T08:59:19;85110.28;;;20.58;31.28
55486;BME280;49383;-25.924;28.194;2023-06-04T09:01:46;85109.37;;;20.61;31.42
55486;BME280;49383;-25.924;28.194;2023-06-04T09:04:11;85108.84;;;20.60;31.53
55486;BME280;49383;-25.924;28.194;2023-06-04T09:06:37;85109.21;;;20.85;31.52
55486;BME280;49383;-25.924;28.194;2023-06-04T09:09:04;85108.05;;;20.64;31.60
55486;BME280;49383;-25.924;28.194;2023-06-04T09:11:30;85101.06;;;20.81;31.69
55486;BME280;49383;-25.924;28.194;2023-06-04T09:13:54;85098.23;;;20.91;31.61
55486;BME280;49383;-25.924;28.194;2023-06-04T09:16:18;85095.84;;;20.67;31.70
55486;BME280;49383;-25.924;28.194;2023-06-04T09:18:44;85097.68;;;20.70;31.67
55486;BME280;49383;-25.924;28.194;2023-06-04T09:21:09;85093.48;;;20.71;31.70
55486;BME280;49383;-25.924;28.194;2023-06-04T09:23:36;85090.20;;;20.95;31.52
55486;BME280;49383;-25.924;28.194;2023-06-04T09:26:07;85088.76;;;20.50;31.51
55486;BME280;49383;-25.924;28.194;2023-06-04T09:28:29;85086.51;;;20.74;31.58
55486;BME280;49383;-25.924;28.194;2023-06-04T09:30:52;85081.60;;;20.78;31.60
55486;BME280;49383;-25.924;28.194;2023-06-04T09:33:16;85078.17;;;20.70;31.72
55486;BME280;49383;-25.924;28.194;2023-06-04T09:35:41;85075.18;;;20.73;31.30
55486;BME280;49383;-25.924;28.194;2023-06-04T09:38:07;85074.88;;;20.74;31.32
55486;BME280;49383;-25.924;28.194;2023-06-04T09:40:36;85075.65;;;20.98;31.41
55486;BME280;49383;-25.924;28.194;2023-06-04T09:42:58;85073.11;;;20.77;31.48
55486;BME280;49383;-25.924;28.194;2023-06-04T09:45:27;85069.07;;;20.79;31.54
55486;BME280;49383;-25.924;28.194;2023-06-04T09:47:48;85070.01;;;20.75;31.73
55486;BME280;49383;-25.924;28.194;2023-06-04T09:50:13;85065.15;;;20.93;31.77
55486;BME280;49383;-25.924;28.194;2023-06-04T09:52:38;85058.82;;;20.79;31.67
55486;BME280;49383;-25.924;28.194;2023-06-04T09:55:04;85056.48;;;21.01;31.70
55486;BME280;49383;-25.924;28.194;2023-06-04T09:57:30;85051.71;;;20.76;31.80
55486;BME280;49383;-25.924;28.194;2023-06-04T09:59:54;85048.00;;;20.84;31.94
55486;BME280;49383;-25.924;28.194;2023-06-04T10:02:20;85037.97;;;20.53;31.94
55486;BME280;49383;-25.924;28.194;2023-06-04T10:04:48;85036.87;;;20.71;31.71
55486;BME280;49383;-25.924;28.194;2023-06-04T10:07:12;85033.00;;;20.70;31.74
55486;BME280;49383;-25.924;28.194;2023-06-04T10:09:35;85031.10;;;20.48;31.97
55486;BME280;49383;-25.924;28.194;2023-06-04T10:12:00;85026.81;;;20.58;31.78
55486;BME280;49383;-25.924;28.194;2023-06-04T10:14:30;85014.15;;;20.58;31.99
55486;BME280;49383;-25.924;28.194;2023-06-04T10:16:51;85010.41;;;20.74;31.78
55486;BME280;49383;-25.924;28.194;2023-06-04T10:19:17;85007.85;;;21.20;31.85
55486;BME280;49383;-25.924;28.194;2023-06-04T10:21:41;84999.45;;;20.78;32.16
55486;BME280;49383;-25.924;28.194;2023-06-04T10:24:07;85005.00;;;20.90;32.28
55486;BME280;49383;-25.924;28.194;2023-06-04T10:26:34;85005.84;;;20.87;32.35
55486;BME280;49383;-25.924;28.194;2023-06-04T10:28:57;85000.98;;;20.55;32.47
55486;BME280;49383;-25.924;28.194;2023-06-04T10:31:23;85001.30;;;20.69;32.58
55486;BME280;49383;-25.924;28.194;2023-06-04T10:33:52;84995.39;;;20.69;32.67
55486;BME280;49383;-25.924;28.194;2023-06-04T10:36:19;84991.46;;;20.51;32.62
55486;BME280;49383;-25.924;28.194;2023-06-04T10:38:44;84987.54;;;20.71;32.62
55486;BME280;49383;-25.924;28.194;2023-06-04T10:41:12;84984.34;;;21.00;32.57
55486;BME280;49383;-25.924;28.194;2023-06-04T10:43:30;84990.19;;;20.67;32.66
55486;BME280;49383;-25.924;28.194;2023-06-04T10:45:55;84988.66;;;20.69;32.60
55486;BME280;49383;-25.924;28.194;2023-06-04T10:48:20;84982.70;;;20.63;32.72
55486;BME280;49383;-25.924;28.194;2023-06-04T10:50:50;84977.67;;;20.67;32.59
55486;BME280;49383;-25.924;28.194;2023-06-04T10:53:11;84975.72;;;20.61;32.61
55486;BME280;49383;-25.924;28.194;2023-06-04T10:55:43;84972.43;;;20.31;32.69
55486;BME280;49383;-25.924;28.194;2023-06-04T10:58:02;84968.32;;;20.78;32.69
55486;BME280;49383;-25.924;28.194;2023-06-04T11:00:35;84969.18;;;20.52;32.64
55486;BME280;49383;-25.924;28.194;2023-06-04T11:02:54;84965.00;;;20.74;32.67
55486;BME280;49383;-25.924;28.194;2023-06-04T11:05:17;84956.54;;;20.44;32.66
55486;BME280;49383;-25.924;28.194;2023-06-04T11:07:44;84956.39;;;20.47;32.71
55486;BME280;49383;-25.924;28.194;2023-06-04T11:10:10;84951.55;;;20.33;32.51
55486;BME280;49383;-25.924;28.194;2023-06-04T11:12:42;84943.16;;;20.68;32.33
55486;BME280;49383;-25.924;28.194;2023-06-04T11:14:59;84942.49;;;20.37;32.40
55486;BME280;49383;-25.924;28.194;2023-06-04T11:17:24;84937.67;;;20.77;32.47
55486;BME280;49383;-25.924;28.194;2023-06-04T11:19:49;84934.10;;;20.82;32.41
55486;BME280;49383;-25.924;28.194;2023-06-04T11:22:15;84931.96;;;20.66;32.58
55486;BME280;49383;-25.924;28.194;2023-06-04T11:24:40;84931.78;;;20.65;32.59
55486;BME280;49383;-25.924;28.194;2023-06-04T11:27:05;84931.25;;;20.36;32.59
55486;BME280;49383;-25.924;28.194;2023-06-04T11:29:30;84924.95;;;20.61;32.55
55486;BME280;49383;-25.924;28.194;2023-06-04T11:31:55;84928.04;;;20.53;32.63
55486;BME280;49383;-25.924;28.194;2023-06-04T11:34:24;84921.76;;;20.48;32.62
55486;BME280;49383;-25.924;28.194;2023-06-04T11:36:46;84916.63;;;20.54;32.74
55486;BME280;49383;-25.924;28.194;2023-06-04T11:39:11;84914.57;;;20.63;32.70
55486;BME280;49383;-25.924;28.194;2023-06-04T11:41:37;84912.00;;;20.42;32.71
55486;BME280;49383;-25.924;28.194;2023-06-04T11:44:03;84918.81;;;20.45;33.18
55486;BME280;49383;-25.924;28.194;2023-06-04T11:46:27;84917.65;;;20.76;34.71
55486;BME280;49383;-25.924;28.194;2023-06-04T11:48:53;84914.80;;;20.62;35.27
55486;BME280;49383;-25.924;28.194;2023-06-04T11:51:19;84912.83;;;20.31;35.89
55486;BME280;49383;-25.924;28.194;2023-06-04T11:53:44;84910.96;;;20.76;36.11
55486;BME280;49383;-25.924;28.194;2023-06-04T11:56:10;84908.24;;;20.41;35.12
55486;BME280;49383;-25.924;28.194;2023-06-04T11:58:35;84908.28;;;20.53;33.98
55486;BME280;49383;-25.924;28.194;2023-06-04T12:01:00;84908.70;;;20.70;33.94
55486;BME280;49383;-25.924;28.194;2023-06-04T12:03:33;84905.93;;;20.58;33.89
55486;BME280;49383;-25.924;28.194;2023-06-04T12:05:51;84901.56;;;20.44;35.45
55486;BME280;49383;-25.924;28.194;2023-06-04T12:08:16;84904.43;;;20.88;36.15
55486;BME280;49383;-25.924;28.194;2023-06-04T12:10:43;84901.18;;;20.83;36.53
55486;BME280;49383;-25.924;28.194;2023-06-04T12:13:06;84895.87;;;20.50;37.16
55486;BME280;49383;-25.924;28.194;2023-06-04T12:15:32;84894.72;;;20.57;35.80
55486;BME280;49383;-25.924;28.194;2023-06-04T12:17:57;84893.72;;;20.37;34.63
55486;BME280;49383;-25.924;28.194;2023-06-04T12:22:48;84886.98;;;20.58;37.00
55486;BME280;49383;-25.924;28.194;2023-06-04T12:27:46;84886.21;;;20.65;36.82
55486;BME280;49383;-25.924;28.194;2023-06-04T12:30:05;84888.60;;;20.41;34.99
55486;BME280;49383;-25.924;28.194;2023-06-04T12:32:29;84888.73;;;20.49;35.41
55486;BME280;49383;-25.924;28.194;2023-06-04T12:34:55;84888.02;;;20.52;36.55
55486;BME280;49383;-25.924;28.194;2023-06-04T12:37:20;84889.00;;;20.52;36.88